Time;durP1;ratioP1;P1;durP2;ratioP2;P2;SDS_P1;SDS_P2;PMS_P1;PMS_P2;Temp;Humidity;BMP_temperature;BMP_pressure;BME280_temperature;BME280_humidity;BME280_pressure;Samples;Min_cycle;Max_cycle;Signal;HPM_P1;HPM_P2
2021/10/31 00:02:23;;;;;;;;;;;11.90;56.20;;;;;;6278048;22;19907;-66
2021/10/31 00:04:49;;;;;;;;;;;11.90;56.30;;;;;;6277992;22;19972;-66
2021/10/31 00:07:14;;;;;;;;;;;11.80;56.20;;;;;;6277942;22;19922;-65
2021/10/31 00:09:40;;;;;;;;;;;11.80;56.20;;;;;;6277969;22;19899;-66
2021/10/31 00:12:05;;;;;;;;;;;11.80;56.20;;;;;;6278064;22;19982;-66
2021/10/31 00:14:31;;;;;;;;;;;11.80;56.20;;;;;;6277687;22;19911;-66
2021/10/31 00:16:59;;;;;;;;;;;11.80;56.20;;;;;;6277724;22;19903;-66
2021/10/31 00:19:26;;;;;;;;;;;11.80;56.30;;;;;;6277771;22;19903;-67
2021/10/31 00:21:51;;;;;;;;;;;11.70;56.20;;;;;;6277842;22;19906;-67
2021/10/31 00:24:17;;;;;;;;;;;11.70;56.20;;;;;;6277850;22;19900;-65
2021/10/31 00:26:43;;;;;;;;;;;11.70;56.20;;;;;;6277864;22;19931;-66
2021/10/31 00:29:08;;;;;;;;;;;11.70;56.30;;;;;;6277825;22;19918;-66
2021/10/31 00:31:34;;;;;;;;;;;11.70;56.40;;;;;;6277788;22;19905;-67
2021/10/31 00:34:00;;;;;;;;;;;11.70;56.40;;;;;;6277689;22;19982;-66
2021/10/31 00:36:26;;;;;;;;;;;11.60;56.30;;;;;;6277736;22;19903;-66
2021/10/31 00:38:52;;;;;;;;;;;11.70;56.40;;;;;;6277752;22;20230;-66
2021/10/31 00:41:17;;;;;;;;;;;11.60;56.60;;;;;;6277172;22;19966;-66
2021/10/31 00:43:43;;;;;;;;;;;11.60;56.90;;;;;;6277522;22;19899;-65
2021/10/31 00:46:09;;;;;;;;;;;11.60;56.90;;;;;;6277581;22;19903;-65
2021/10/31 00:48:35;;;;;;;;;;;11.60;56.90;;;;;;6277589;22;19905;-66
2021/10/31 00:51:00;;;;;;;;;;;11.60;57.00;;;;;;6277388;22;19895;-67
2021/10/31 00:53:26;;;;;;;;;;;11.60;57.10;;;;;;6275894;22;19899;-66
2021/10/31 00:55:52;;;;;;;;;;;11.60;57.10;;;;;;6277369;22;19984;-66
2021/10/31 00:58:18;;;;;;;;;;;11.60;57.10;;;;;;6277434;22;19933;-65
2021/10/31 01:00:46;;;;;;;;;;;11.60;57.00;;;;;;6277421;22;19922;-66
2021/10/31 01:03:11;;;;;;;;;;;11.60;57.00;;;;;;6275641;22;19899;-66
2021/10/31 01:05:41;;;;;;;;;;;11.60;56.90;;;;;;6277328;22;19899;-65
2021/10/31 01:08:16;;;;;;;;;;;11.60;56.90;;;;;;6277337;22;19933;-67
2021/10/31 01:10:41;;;;;;;;;;;11.60;56.80;;;;;;6275764;22;20207;-66
2021/10/31 01:13:12;;;;;;;;;;;11.60;56.80;;;;;;6276981;22;19917;-67
2021/10/31 01:15:57;;;;;;;;;;;11.50;56.80;;;;;;6277187;22;19922;-66
2021/10/31 01:18:25;;;;;;;;;;;11.50;56.80;;;;;;6277123;22;19911;-66
2021/10/31 01:20:53;;;;;;;;;;;11.50;56.80;;;;;;6277153;22;19899;-66
2021/10/31 01:23:25;;;;;;;;;;;11.50;56.80;;;;;;6277199;22;19899;-65
2021/10/31 01:26:03;;;;;;;;;;;11.40;56.70;;;;;;6277228;22;19903;-65
2021/10/31 01:28:47;;;;;;;;;;;11.40;56.70;;;;;;6277190;22;19978;-67
2021/10/31 01:31:27;;;;;;;;;;;11.30;56.70;;;;;;6276965;22;19982;-67
2021/10/31 01:33:58;;;;;;;;;;;11.30;56.70;;;;;;6277214;22;19900;-66
2021/10/31 01:36:35;;;;;;;;;;;11.30;56.70;;;;;;6276838;22;19946;-66
2021/10/31 01:39:01;;;;;;;;;;;11.20;56.60;;;;;;6277082;22;19899;-67
2021/10/31 01:41:33;;;;;;;;;;;11.10;56.60;;;;;;6277094;22;20326;-65
2021/10/31 01:44:00;;;;;;;;;;;11.10;56.60;;;;;;6276846;22;20029;-66
2021/10/31 01:46:32;;;;;;;;;;;11.10;56.60;;;;;;6277035;22;19902;-66
2021/10/31 01:49:16;;;;;;;;;;;11.00;57.30;;;;;;6276911;22;19982;-66
2021/10/31 01:51:46;;;;;;;;;;;11.00;56.80;;;;;;6276760;22;19895;-67
2021/10/31 01:54:19;;;;;;;;;;;10.90;56.70;;;;;;6276878;22;19899;-66
2021/10/31 01:56:49;;;;;;;;;;;10.90;56.80;;;;;;6276723;22;19986;-67
2021/10/31 01:59:24;;;;;;;;;;;10.90;56.80;;;;;;6276782;22;19922;-67
2021/10/31 02:01:50;;;;;;;;;;;10.80;56.80;;;;;;6276851;22;19953;-66
2021/10/31 02:04:17;;;;;;;;;;;10.80;56.90;;;;;;6276620;22;19899;-67
2021/10/31 02:06:44;;;;;;;;;;;10.80;56.90;;;;;;6276473;22;19976;-66
2021/10/31 02:09:13;;;;;;;;;;;10.80;57.20;;;;;;6276505;22;20293;-67
2021/10/31 02:11:40;;;;;;;;;;;10.70;57.50;;;;;;6276591;22;20315;-65
2021/10/31 02:14:06;;;;;;;;;;;10.70;57.80;;;;;;6276255;22;20315;-65
2021/10/31 02:16:34;;;;;;;;;;;10.70;58.00;;;;;;6276427;22;19949;-66
2021/10/31 02:19:04;;;;;;;;;;;10.80;58.10;;;;;;6276438;22;19899;-67
2021/10/31 02:21:31;;;;;;;;;;;10.80;58.20;;;;;;6276357;22;19906;-67
2021/10/31 02:23:59;;;;;;;;;;;10.80;58.10;;;;;;6276313;22;19899;-67
2021/10/31 02:26:24;;;;;;;;;;;10.90;58.00;;;;;;6276486;22;19983;-67
2021/10/31 02:28:54;;;;;;;;;;;10.80;58.00;;;;;;6276395;22;20318;-65
2021/10/31 02:31:20;;;;;;;;;;;10.90;57.90;;;;;;6276438;22;20326;-65
2021/10/31 02:33:46;;;;;;;;;;;10.80;57.80;;;;;;6274898;22;19899;-65
2021/10/31 02:36:12;;;;;;;;;;;10.90;57.80;;;;;;6276216;22;19952;-66
2021/10/31 02:38:37;;;;;;;;;;;10.90;57.70;;;;;;6276471;22;19974;-66
2021/10/31 02:41:03;;;;;;;;;;;10.80;57.60;;;;;;6276381;22;20339;-66
2021/10/31 02:43:29;;;;;;;;;;;10.80;57.60;;;;;;6276320;22;19899;-65
2021/10/31 02:45:54;;;;;;;;;;;10.80;57.60;;;;;;6276418;22;20274;-67
2021/10/31 02:48:20;;;;;;;;;;;10.80;57.60;;;;;;6276363;22;19974;-67
2021/10/31 02:50:46;;;;;;;;;;;10.70;57.60;;;;;;6274747;22;19960;-66
2021/10/31 02:53:18;;;;;;;;;;;10.70;57.60;;;;;;6274722;22;20251;-65
2021/10/31 02:56:01;;;;;;;;;;;10.70;57.70;;;;;;6276125;22;19899;-67
2021/10/31 02:58:46;;;;;;;;;;;10.70;57.70;;;;;;6276088;22;19946;-66
2021/10/31 03:01:12;;;;;;;;;;;10.60;57.70;;;;;;6276208;22;20008;-66
2021/10/31 03:03:38;;;;;;;;;;;10.60;57.70;;;;;;6275964;22;19949;-67
2021/10/31 03:06:04;;;;;;;;;;;10.60;57.70;;;;;;6276014;22;19899;-66
2021/10/31 03:08:30;;;;;;;;;;;10.50;57.70;;;;;;6276042;22;20385;-66
2021/10/31 03:10:57;;;;;;;;;;;10.50;57.70;;;;;;6275739;22;20311;-66
2021/10/31 03:13:23;;;;;;;;;;;10.50;57.70;;;;;;6275765;22;19907;-66
2021/10/31 03:15:49;;;;;;;;;;;10.50;57.80;;;;;;6275957;22;19899;-65
2021/10/31 03:18:15;;;;;;;;;;;10.40;57.80;;;;;;6276008;22;20287;-66
2021/10/31 03:20:41;;;;;;;;;;;10.40;57.80;;;;;;6276245;22;20231;-66
2021/10/31 03:23:07;;;;;;;;;;;10.40;57.80;;;;;;6276419;22;20276;-65
2021/10/31 03:25:32;;;;;;;;;;;10.40;57.90;;;;;;6276253;22;19907;-66
2021/10/31 03:27:58;;;;;;;;;;;10.40;57.90;;;;;;6276313;22;19906;-66
2021/10/31 03:30:23;;;;;;;;;;;10.40;57.90;;;;;;6275967;22;19906;-66
2021/10/31 03:32:49;;;;;;;;;;;10.40;57.90;;;;;;6276068;22;19918;-67
2021/10/31 03:35:15;;;;;;;;;;;10.40;58.00;;;;;;6276056;22;19903;-66
2021/10/31 03:37:42;;;;;;;;;;;10.40;58.00;;;;;;6275974;22;19956;-66
2021/10/31 03:40:08;;;;;;;;;;;10.40;58.00;;;;;;6276022;22;19899;-66
2021/10/31 03:42:34;;;;;;;;;;;10.40;58.10;;;;;;6276014;22;19982;-66
2021/10/31 03:45:00;;;;;;;;;;;10.40;58.10;;;;;;6276025;22;19899;-67
2021/10/31 03:47:27;;;;;;;;;;;10.40;58.20;;;;;;6276036;22;19899;-66
2021/10/31 03:49:53;;;;;;;;;;;10.40;58.20;;;;;;6274340;22;20275;-65
2021/10/31 03:52:18;;;;;;;;;;;10.30;58.20;;;;;;6275940;22;19906;-65
2021/10/31 03:54:44;;;;;;;;;;;10.30;58.20;;;;;;6276110;22;19915;-65
2021/10/31 03:57:10;;;;;;;;;;;10.30;58.20;;;;;;6275668;22;20382;-66
2021/10/31 03:59:35;;;;;;;;;;;10.30;58.20;;;;;;6275751;22;19905;-66
2021/10/31 04:02:01;;;;;;;;;;;10.30;58.20;;;;;;6275871;22;19899;-66
2021/10/31 04:04:28;;;;;;;;;;;10.30;58.20;;;;;;6275876;22;19906;-66
2021/10/31 04:06:53;;;;;;;;;;;10.30;58.30;;;;;;6275744;22;19926;-65
2021/10/31 04:09:19;;;;;;;;;;;10.20;58.20;;;;;;6275724;22;19902;-66
2021/10/31 04:11:44;;;;;;;;;;;10.20;58.30;;;;;;6275866;22;19906;-66
2021/10/31 04:14:10;;;;;;;;;;;10.20;58.30;;;;;;6275531;22;19911;-67
2021/10/31 04:16:36;;;;;;;;;;;10.20;58.30;;;;;;6277044;22;19903;-67
2021/10/31 04:19:02;;;;;;;;;;;10.20;58.30;;;;;;6277678;22;19899;-65
2021/10/31 04:21:27;;;;;;;;;;;10.20;58.30;;;;;;6277749;22;19939;-66
2021/10/31 04:23:53;;;;;;;;;;;10.10;58.90;;;;;;6277632;22;20315;-66
2021/10/31 04:26:18;;;;;;;;;;;10.10;58.30;;;;;;6277837;22;19899;-66
2021/10/31 04:28:44;;;;;;;;;;;10.10;58.90;;;;;;6277575;22;19931;-66
2021/10/31 04:31:10;;;;;;;;;;;10.10;58.40;;;;;;6277604;22;19899;-66
2021/10/31 04:33:36;;;;;;;;;;;10.10;58.40;;;;;;6277586;22;19899;-66
2021/10/31 04:36:03;;;;;;;;;;;10.10;58.40;;;;;;6277757;22;19899;-66
2021/10/31 04:38:31;;;;;;;;;;;10.00;58.30;;;;;;6277521;22;19899;-65
2021/10/31 04:40:57;;;;;;;;;;;10.00;58.40;;;;;;6277570;22;19900;-67
2021/10/31 04:43:24;;;;;;;;;;;10.00;58.40;;;;;;6277460;22;19900;-66
2021/10/31 04:45:50;;;;;;;;;;;10.00;58.40;;;;;;6277300;22;19951;-66
2021/10/31 04:48:15;;;;;;;;;;;10.00;58.50;;;;;;6277423;22;19899;-65
2021/10/31 04:50:41;;;;;;;;;;;10.00;58.50;;;;;;6277231;22;20315;-65
2021/10/31 04:53:10;;;;;;;;;;;10.00;58.50;;;;;;6276104;22;20294;-65
2021/10/31 04:55:40;;;;;;;;;;;9.90;58.50;;;;;;6277299;22;19899;-67
2021/10/31 04:58:06;;;;;;;;;;;9.90;58.50;;;;;;6277216;22;20044;-65
2021/10/31 05:00:32;;;;;;;;;;;9.90;58.50;;;;;;6277388;22;20226;-66
2021/10/31 05:02:58;;;;;;;;;;;9.90;58.50;;;;;;6277208;22;19900;-65
2021/10/31 05:05:24;;;;;;;;;;;9.90;58.50;;;;;;6277385;22;19899;-66
2021/10/31 05:07:52;;;;;;;;;;;9.90;58.50;;;;;;6277276;22;19980;-65
2021/10/31 05:10:18;;;;;;;;;;;9.90;58.60;;;;;;6277284;22;20230;-65
2021/10/31 05:12:44;;;;;;;;;;;9.90;58.60;;;;;;6276929;22;19931;-66
2021/10/31 05:15:10;;;;;;;;;;;9.80;58.70;;;;;;6277173;22;20268;-65
2021/10/31 05:17:37;;;;;;;;;;;9.80;58.70;;;;;;6277060;22;19903;-65
2021/10/31 05:20:03;;;;;;;;;;;9.80;58.70;;;;;;6277160;22;19899;-65
2021/10/31 05:22:29;;;;;;;;;;;9.80;58.80;;;;;;6277206;22;19907;-66
2021/10/31 05:24:55;;;;;;;;;;;9.70;58.80;;;;;;6277174;22;19907;-65
2021/10/31 05:27:20;;;;;;;;;;;9.70;58.80;;;;;;6276855;22;19899;-65
2021/10/31 05:29:49;;;;;;;;;;;9.60;58.80;;;;;;6277066;22;19899;-66
2021/10/31 05:32:15;;;;;;;;;;;9.60;58.80;;;;;;6276969;22;20032;-66
2021/10/31 05:34:40;;;;;;;;;;;9.60;58.80;;;;;;6277113;22;19930;-66
2021/10/31 05:37:06;;;;;;;;;;;9.60;58.90;;;;;;6276968;22;19953;-65
2021/10/31 05:39:32;;;;;;;;;;;9.50;58.90;;;;;;6276981;22;20341;-65
2021/10/31 05:41:58;;;;;;;;;;;9.50;58.90;;;;;;6276957;22;19930;-67
2021/10/31 05:44:23;;;;;;;;;;;9.50;59.00;;;;;;6277100;22;19899;-66
2021/10/31 05:46:49;;;;;;;;;;;9.50;59.00;;;;;;6277057;22;19906;-66
2021/10/31 05:49:15;;;;;;;;;;;9.50;59.00;;;;;;6277048;22;19900;-65
2021/10/31 05:51:41;;;;;;;;;;;9.50;59.10;;;;;;6276954;22;20265;-66
2021/10/31 05:54:07;;;;;;;;;;;9.40;59.10;;;;;;6277008;22;19922;-65
2021/10/31 05:56:33;;;;;;;;;;;9.40;59.20;;;;;;6276937;22;19930;-67
2021/10/31 05:58:59;;;;;;;;;;;9.40;59.20;;;;;;6276751;22;20170;-65
2021/10/31 06:01:24;;;;;;;;;;;9.40;59.30;;;;;;6276865;22;19899;-65
2021/10/31 06:03:50;;;;;;;;;;;9.40;59.30;;;;;;6276826;22;20311;-66
2021/10/31 06:06:22;;;;;;;;;;;9.40;59.30;;;;;;6276847;22;19922;-67
2021/10/31 06:08:47;;;;;;;;;;;9.40;59.40;;;;;;6276876;22;20021;-66
2021/10/31 06:11:13;;;;;;;;;;;9.40;59.40;;;;;;6276746;22;20275;-66
2021/10/31 06:13:39;;;;;;;;;;;9.40;59.40;;;;;;6274863;22;19919;-67
2021/10/31 06:16:07;;;;;;;;;;;9.40;60.10;;;;;;6276630;22;19972;-66
2021/10/31 06:18:34;;;;;;;;;;;9.40;59.50;;;;;;6276733;22;19899;-66
2021/10/31 06:21:00;;;;;;;;;;;9.40;59.50;;;;;;6276525;22;19899;-67
2021/10/31 06:23:26;;;;;;;;;;;9.30;59.60;;;;;;6276623;22;20208;-65
2021/10/31 06:25:52;;;;;;;;;;;9.40;59.70;;;;;;6276643;22;19906;-66
2021/10/31 06:28:18;;;;;;;;;;;9.40;59.70;;;;;;6276491;22;19922;-66
2021/10/31 06:30:43;;;;;;;;;;;9.40;59.80;;;;;;6276566;22;20231;-66
2021/10/31 06:33:09;;;;;;;;;;;9.40;59.80;;;;;;6276536;22;19900;-67
2021/10/31 06:35:35;;;;;;;;;;;9.40;59.90;;;;;;6276521;22;20208;-66
2021/10/31 06:38:01;;;;;;;;;;;9.40;59.90;;;;;;6275997;22;19903;-66
2021/10/31 06:40:27;;;;;;;;;;;9.40;60.60;;;;;;6276359;22;20391;-66
2021/10/31 06:42:53;;;;;;;;;;;9.40;59.90;;;;;;6276420;22;19930;-66
2021/10/31 06:45:19;;;;;;;;;;;9.40;60.00;;;;;;6276423;22;19981;-67
2021/10/31 06:47:44;;;;;;;;;;;9.40;60.10;;;;;;6276318;22;19899;-66
2021/10/31 06:50:10;;;;;;;;;;;9.40;60.20;;;;;;6276289;22;19907;-66
2021/10/31 06:52:36;;;;;;;;;;;9.50;60.30;;;;;;6276292;22;19899;-64
2021/10/31 06:55:02;;;;;;;;;;;9.50;60.30;;;;;;6276256;22;19899;-66
2021/10/31 06:57:28;;;;;;;;;;;9.50;60.30;;;;;;6276243;22;19930;-67
2021/10/31 06:59:53;;;;;;;;;;;9.50;60.30;;;;;;6274630;22;19899;-65
2021/10/31 07:02:19;;;;;;;;;;;9.60;60.30;;;;;;6276299;22;19903;-66
2021/10/31 07:04:44;;;;;;;;;;;9.60;60.40;;;;;;6276148;22;19903;-66
2021/10/31 07:07:10;;;;;;;;;;;9.60;60.40;;;;;;6276250;22;19906;-66
2021/10/31 07:09:36;;;;;;;;;;;9.70;60.50;;;;;;6276117;22;19969;-66
2021/10/31 07:12:02;;;;;;;;;;;9.70;60.50;;;;;;6276159;22;19899;-66
2021/10/31 07:14:28;;;;;;;;;;;9.70;60.60;;;;;;6275984;22;20308;-67
2021/10/31 07:16:54;;;;;;;;;;;9.80;60.60;;;;;;6276099;22;19985;-66
2021/10/31 07:19:20;;;;;;;;;;;9.90;60.70;;;;;;6276105;22;20025;-67
2021/10/31 07:21:45;;;;;;;;;;;9.90;60.60;;;;;;6276210;22;20264;-66
2021/10/31 07:24:11;;;;;;;;;;;10.00;60.70;;;;;;6276064;22;19903;-66
2021/10/31 07:26:37;;;;;;;;;;;10.00;60.70;;;;;;6276072;22;19970;-66
2021/10/31 07:29:05;;;;;;;;;;;10.10;60.90;;;;;;6276132;22;20311;-67
2021/10/31 07:31:32;;;;;;;;;;;10.10;61.00;;;;;;6276121;22;19899;-66
2021/10/31 07:33:58;;;;;;;;;;;10.20;61.00;;;;;;6276059;22;19903;-66
2021/10/31 07:36:24;;;;;;;;;;;10.30;61.00;;;;;;6276035;22;19977;-67
2021/10/31 07:38:50;;;;;;;;;;;10.30;60.90;;;;;;6276087;22;19899;-66
2021/10/31 07:41:15;;;;;;;;;;;10.40;60.80;;;;;;6276051;22;19931;-67
2021/10/31 07:43:41;;;;;;;;;;;10.50;60.90;;;;;;6276056;22;20311;-66
2021/10/31 07:46:07;;;;;;;;;;;10.60;60.90;;;;;;6276143;22;19899;-67
2021/10/31 07:48:33;;;;;;;;;;;10.70;60.90;;;;;;6276357;22;19899;-66
2021/10/31 07:51:00;;;;;;;;;;;10.70;60.80;;;;;;6277354;22;19907;-66
2021/10/31 07:53:26;;;;;;;;;;;10.80;60.80;;;;;;6276486;22;20319;-66
2021/10/31 07:55:53;;;;;;;;;;;10.90;60.80;;;;;;6278063;22;20208;-66
2021/10/31 07:58:21;;;;;;;;;;;11.00;60.70;;;;;;6276316;22;19910;-66
2021/10/31 08:00:48;;;;;;;;;;;11.10;60.60;;;;;;6278087;22;20273;-67
2021/10/31 08:03:14;;;;;;;;;;;11.20;60.40;;;;;;6277986;22;19906;-65
2021/10/31 08:05:40;;;;;;;;;;;11.20;60.40;;;;;;6278036;22;20403;-66
2021/10/31 08:08:06;;;;;;;;;;;11.30;60.30;;;;;;6277816;22;19906;-67
2021/10/31 08:10:31;;;;;;;;;;;11.40;60.20;;;;;;6277978;22;19903;-66
2021/10/31 08:12:57;;;;;;;;;;;11.50;60.10;;;;;;6276097;22;19918;-67
2021/10/31 08:15:23;;;;;;;;;;;11.60;60.10;;;;;;6277884;22;20287;-68
2021/10/31 08:17:48;;;;;;;;;;;11.60;59.90;;;;;;6277846;22;19903;-67
2021/10/31 08:20:14;;;;;;;;;;;11.70;59.80;;;;;;6277852;22;19937;-67
2021/10/31 08:22:40;;;;;;;;;;;11.80;59.70;;;;;;6277640;22;19899;-66
2021/10/31 08:25:06;;;;;;;;;;;11.90;59.60;;;;;;6277810;22;19906;-66
2021/10/31 08:27:32;;;;;;;;;;;11.90;59.50;;;;;;6277766;22;20235;-66
2021/10/31 08:29:57;;;;;;;;;;;12.00;59.40;;;;;;6277666;22;19899;-67
2021/10/31 08:32:26;;;;;;;;;;;12.10;59.40;;;;;;6277545;22;20315;-68
2021/10/31 08:34:52;;;;;;;;;;;12.20;59.40;;;;;;6277686;22;19899;-68
2021/10/31 08:37:17;;;;;;;;;;;12.20;59.30;;;;;;6277532;22;20208;-66
2021/10/31 08:39:43;;;;;;;;;;;12.30;59.20;;;;;;6277637;22;19899;-65
2021/10/31 08:42:09;;;;;;;;;;;12.40;59.00;;;;;;6277455;22;19896;-66
2021/10/31 08:44:36;;;;;;;;;;;12.50;58.80;;;;;;6277347;22;20032;-66
2021/10/31 08:47:02;;;;;;;;;;;12.60;58.70;;;;;;6275894;22;20307;-66
2021/10/31 08:49:28;;;;;;;;;;;12.60;58.70;;;;;;6275933;22;19903;-65
2021/10/31 08:51:54;;;;;;;;;;;12.70;58.50;;;;;;6277415;22;19900;-66
2021/10/31 08:54:19;;;;;;;;;;;12.80;58.50;;;;;;6277438;22;19895;-67
2021/10/31 08:56:46;;;;;;;;;;;12.90;58.50;;;;;;6277312;22;19910;-67
2021/10/31 08:59:12;;;;;;;;;;;12.90;58.30;;;;;;6277309;22;19899;-67
2021/10/31 09:01:38;;;;;;;;;;;13.00;58.20;;;;;;6276937;22;19906;-65
2021/10/31 09:04:04;;;;;;;;;;;13.00;58.10;;;;;;6277276;22;19899;-67
2021/10/31 09:06:29;;;;;;;;;;;13.10;58.00;;;;;;6277138;22;19903;-67
2021/10/31 09:08:55;;;;;;;;;;;13.20;57.90;;;;;;6277017;22;19906;-67
2021/10/31 09:11:21;;;;;;;;;;;13.20;57.80;;;;;;6277183;22;19907;-67
2021/10/31 09:13:47;;;;;;;;;;;13.30;57.90;;;;;;6276734;22;19957;-67
2021/10/31 09:16:13;;;;;;;;;;;13.40;57.90;;;;;;6277085;22;19929;-66
2021/10/31 09:18:39;;;;;;;;;;;13.40;57.80;;;;;;6277176;22;19903;-66
2021/10/31 09:21:05;;;;;;;;;;;13.50;57.80;;;;;;6277243;22;19922;-67
2021/10/31 09:23:32;;;;;;;;;;;13.60;57.80;;;;;;6277607;22;19927;-67
2021/10/31 09:25:58;;;;;;;;;;;13.60;57.70;;;;;;6277721;22;19949;-67
2021/10/31 09:28:23;;;;;;;;;;;13.70;57.60;;;;;;6277311;22;20226;-66
2021/10/31 09:30:49;;;;;;;;;;;13.80;57.50;;;;;;6277050;22;19899;-67
2021/10/31 09:33:15;;;;;;;;;;;13.80;57.20;;;;;;6276897;22;19977;-67
2021/10/31 09:35:47;;;;;;;;;;;13.90;57.10;;;;;;6276947;22;20208;-66
2021/10/31 09:38:13;;;;;;;;;;;13.90;56.90;;;;;;6276938;22;19903;-68
2021/10/31 09:40:39;;;;;;;;;;;14.00;56.90;;;;;;6277047;22;19927;-66
2021/10/31 09:43:05;;;;;;;;;;;14.00;56.80;;;;;;6276895;22;20314;-67
2021/10/31 09:45:32;;;;;;;;;;;14.10;56.70;;;;;;6277029;22;19974;-66
2021/10/31 09:48:02;;;;;;;;;;;14.10;56.60;;;;;;6276884;22;19974;-66
2021/10/31 09:50:29;;;;;;;;;;;14.10;56.50;;;;;;6276856;22;19986;-67
2021/10/31 09:52:55;;;;;;;;;;;14.20;56.40;;;;;;6276599;22;19899;-68
2021/10/31 09:55:21;;;;;;;;;;;14.20;56.30;;;;;;6276656;22;19906;-66
2021/10/31 09:57:47;;;;;;;;;;;14.20;56.30;;;;;;6276571;22;19960;-66
2021/10/31 10:00:13;;;;;;;;;;;14.20;56.20;;;;;;6276672;22;19899;-67
2021/10/31 10:05:05;;;;;;;;;;;14.30;56.20;;;;;;6277236;22;19922;-67
2021/10/31 10:07:31;;;;;;;;;;;14.40;56.10;;;;;;6276730;22;20234;-66
2021/10/31 10:09:57;;;;;;;;;;;14.40;56.00;;;;;;6276564;22;20049;-67
2021/10/31 10:12:24;;;;;;;;;;;14.40;56.00;;;;;;6276491;22;19899;-66
2021/10/31 10:15:07;;;;;;;;;;;14.50;56.10;;;;;;6276364;22;19915;-68
2021/10/31 10:17:43;;;;;;;;;;;14.50;56.00;;;;;;6276326;22;19903;-66
2021/10/31 10:20:12;;;;;;;;;;;14.50;56.00;;;;;;6276400;22;19899;-66
2021/10/31 10:22:38;;;;;;;;;;;14.50;56.00;;;;;;6276450;22;19899;-66
2021/10/31 10:25:05;;;;;;;;;;;14.60;56.00;;;;;;6276255;22;20227;-68
2021/10/31 10:27:35;;;;;;;;;;;14.60;56.10;;;;;;6276366;22;19903;-66
2021/10/31 10:30:10;;;;;;;;;;;14.70;56.20;;;;;;6276807;22;20268;-67
2021/10/31 10:32:47;;;;;;;;;;;14.80;56.20;;;;;;6276317;22;19903;-67
2021/10/31 10:35:15;;;;;;;;;;;14.90;56.20;;;;;;6276634;22;19899;-67
2021/10/31 10:37:41;;;;;;;;;;;15.10;56.10;;;;;;6274699;22;19974;-68
2021/10/31 10:40:09;;;;;;;;;;;15.20;56.10;;;;;;6276401;22;19931;-67
2021/10/31 10:42:51;;;;;;;;;;;15.30;56.00;;;;;;6276388;22;19903;-67
2021/10/31 10:45:20;;;;;;;;;;;15.40;55.90;;;;;;6276305;22;19950;-66
2021/10/31 10:47:48;;;;;;;;;;;15.60;55.90;;;;;;6276302;22;19899;-67
2021/10/31 10:50:15;;;;;;;;;;;15.70;55.70;;;;;;6274698;22;20264;-68
2021/10/31 10:52:42;;;;;;;;;;;15.90;55.60;;;;;;6276182;22;19899;-67
2021/10/31 10:55:18;;;;;;;;;;;16.00;55.30;;;;;;6276324;22;19907;-66
2021/10/31 10:57:48;;;;;;;;;;;16.10;55.00;;;;;;6276169;22;19943;-66
2021/10/31 11:00:18;;;;;;;;;;;16.20;55.00;;;;;;6276256;22;19899;-67
2021/10/31 11:03:20;;;;;;;;;;;16.30;54.90;;;;;;6276137;22;19903;-67
2021/10/31 11:05:47;;;;;;;;;;;16.40;54.70;;;;;;6242784;23;19900;-68
2021/10/31 11:08:14;;;;;;;;;;;16.60;54.50;;;;;;6242830;23;19900;-67
2021/10/31 11:10:52;;;;;;;;;;;16.60;54.20;;;;;;6242804;23;20252;-67
2021/10/31 11:13:18;;;;;;;;;;;16.70;54.10;;;;;;6242542;23;19908;-67
2021/10/31 11:15:43;;;;;;;;;;;16.70;53.80;;;;;;6242816;23;20279;-66
2021/10/31 11:18:10;;;;;;;;;;;16.80;53.50;;;;;;6242737;23;19949;-68
2021/10/31 11:20:37;;;;;;;;;;;16.80;53.50;;;;;;6217249;23;19907;-66
2021/10/31 11:23:05;;;;;;;;;;;16.80;53.20;;;;;;6217169;23;19899;-68
2021/10/31 11:25:32;;;;;;;;;;;16.80;53.10;;;;;;6244881;23;19958;-66
2021/10/31 11:27:59;;;;;;;;;;;16.80;53.00;;;;;;6246046;23;19931;-67
2021/10/31 11:30:25;;;;;;;;;;;16.90;52.80;;;;;;6246067;23;20307;-67
2021/10/31 11:32:52;;;;;;;;;;;16.80;52.80;;;;;;6246004;23;19906;-67
2021/10/31 11:35:18;;;;;;;;;;;16.80;52.80;;;;;;6245996;23;19954;-67
2021/10/31 11:37:59;;;;;;;;;;;16.80;52.80;;;;;;6246087;23;19938;-66
2021/10/31 11:40:27;;;;;;;;;;;16.80;52.80;;;;;;6272779;22;19922;-67
2021/10/31 11:42:53;;;;;;;;;;;16.90;53.00;;;;;;6279590;22;19899;-67
2021/10/31 11:45:22;;;;;;;;;;;16.90;53.00;;;;;;6279447;22;19905;-67
2021/10/31 11:48:08;;;;;;;;;;;17.00;53.00;;;;;;6279512;22;19961;-68
2021/10/31 11:50:34;;;;;;;;;;;17.00;52.70;;;;;;6279546;22;19900;-67
2021/10/31 11:53:01;;;;;;;;;;;17.00;52.60;;;;;;6279344;22;19953;-67
2021/10/31 11:55:27;;;;;;;;;;;17.10;52.60;;;;;;6279453;22;19899;-68
2021/10/31 11:58:02;;;;;;;;;;;17.10;52.60;;;;;;6279230;22;19903;-67
2021/10/31 12:00:28;;;;;;;;;;;17.10;52.50;;;;;;6277430;22;19903;-66
2021/10/31 12:02:57;;;;;;;;;;;17.10;52.30;;;;;;6279375;22;19899;-67
2021/10/31 12:05:36;;;;;;;;;;;17.10;52.50;;;;;;6277605;22;19968;-67
2021/10/31 12:08:02;;;;;;;;;;;17.10;52.40;;;;;;6279400;22;19903;-67
2021/10/31 12:10:29;;;;;;;;;;;17.10;52.20;;;;;;6279371;22;19931;-66
2021/10/31 12:13:14;;;;;;;;;;;17.10;52.00;;;;;;6279012;22;19907;-67
2021/10/31 12:15:55;;;;;;;;;;;17.10;51.90;;;;;;6277730;22;20341;-67
2021/10/31 12:18:39;;;;;;;;;;;17.10;51.80;;;;;;6279163;22;19926;-65
2021/10/31 12:21:16;;;;;;;;;;;17.10;51.70;;;;;;6277835;22;19956;-66
2021/10/31 12:23:52;;;;;;;;;;;17.00;51.70;;;;;;6279097;22;19899;-67
2021/10/31 12:26:19;;;;;;;;;;;16.90;51.50;;;;;;6279531;22;20266;-67
2021/10/31 12:28:45;;;;;;;;;;;16.80;51.40;;;;;;6279082;22;19899;-66
2021/10/31 12:31:27;;;;;;;;;;;16.80;51.50;;;;;;6279130;22;19926;-65
2021/10/31 12:34:11;;;;;;;;;;;16.70;51.50;;;;;;6279088;22;19899;-66
2021/10/31 12:36:38;;;;;;;;;;;16.70;51.60;;;;;;6275811;22;20227;-65
2021/10/31 12:39:23;;;;;;;;;;;16.60;51.60;;;;;;6277526;22;20273;-67
2021/10/31 12:42:10;;;;;;;;;;;16.50;51.60;;;;;;6277361;22;20226;-66
2021/10/31 12:44:35;;;;;;;;;;;16.50;51.80;;;;;;6271392;22;19899;-65
2021/10/31 12:47:02;;;;;;;;;;;16.50;51.90;;;;;;6277382;22;19907;-67
2021/10/31 12:49:28;;;;;;;;;;;16.50;51.90;;;;;;6277347;22;19899;-67
2021/10/31 12:52:01;;;;;;;;;;;16.60;52.00;;;;;;6277305;22;20239;-66
2021/10/31 12:54:28;;;;;;;;;;;16.60;52.00;;;;;;6275744;22;19953;-67
2021/10/31 12:56:55;;;;;;;;;;;16.60;51.90;;;;;;6277241;22;19938;-66
2021/10/31 12:59:20;;;;;;;;;;;16.60;51.70;;;;;;6277228;22;19907;-67
2021/10/31 13:01:46;;;;;;;;;;;16.60;51.60;;;;;;6277285;22;20239;-68
2021/10/31 13:04:13;;;;;;;;;;;16.60;51.60;;;;;;6277333;22;19906;-67
2021/10/31 13:06:58;;;;;;;;;;;16.60;51.60;;;;;;6277238;22;19976;-66
2021/10/31 13:09:24;;;;;;;;;;;16.60;51.50;;;;;;6277197;22;19899;-67
2021/10/31 13:11:50;;;;;;;;;;;16.60;51.50;;;;;;6277359;22;20230;-66
2021/10/31 13:14:32;;;;;;;;;;;16.60;51.50;;;;;;6276921;22;19934;-66
2021/10/31 13:17:03;;;;;;;;;;;16.60;51.50;;;;;;6277213;22;19914;-66
2021/10/31 13:19:30;;;;;;;;;;;16.60;51.40;;;;;;6277165;22;19970;-66
2021/10/31 13:22:00;;;;;;;;;;;16.60;51.30;;;;;;6277218;22;19899;-67
2021/10/31 13:24:26;;;;;;;;;;;16.60;51.20;;;;;;6277176;22;19903;-66
2021/10/31 13:26:52;;;;;;;;;;;16.50;51.10;;;;;;6277118;22;19900;-66
2021/10/31 13:29:17;;;;;;;;;;;16.50;51.10;;;;;;6277028;22;19905;-67
2021/10/31 13:31:43;;;;;;;;;;;16.40;51.10;;;;;;6277103;22;19981;-66
2021/10/31 13:34:10;;;;;;;;;;;16.40;51.10;;;;;;6277056;22;19906;-66
2021/10/31 13:36:37;;;;;;;;;;;16.30;51.10;;;;;;6277095;22;19930;-67
2021/10/31 13:39:10;;;;;;;;;;;16.20;51.10;;;;;;6277023;22;19899;-66
2021/10/31 13:41:36;;;;;;;;;;;16.20;51.10;;;;;;6277054;22;19907;-67
2021/10/31 13:44:03;;;;;;;;;;;16.10;51.70;;;;;;6277331;22;20231;-66
2021/10/31 13:46:32;;;;;;;;;;;16.00;51.10;;;;;;6276925;22;19974;-66
2021/10/31 13:49:07;;;;;;;;;;;16.00;51.20;;;;;;6274927;22;19978;-68
2021/10/31 13:51:35;;;;;;;;;;;16.00;51.30;;;;;;6276913;22;19906;-65
2021/10/31 13:54:01;;;;;;;;;;;15.90;51.30;;;;;;6276973;22;19983;-67
2021/10/31 13:56:27;;;;;;;;;;;15.90;51.40;;;;;;6276730;22;19938;-67
2021/10/31 13:58:53;;;;;;;;;;;15.90;51.40;;;;;;6276608;22;20329;-66
2021/10/31 14:01:31;;;;;;;;;;;15.80;51.40;;;;;;6276731;22;19899;-67
2021/10/31 14:04:17;;;;;;;;;;;15.80;51.40;;;;;;6276712;22;20256;-67
2021/10/31 14:06:43;;;;;;;;;;;15.80;51.50;;;;;;6276712;22;19899;-67
2021/10/31 14:09:10;;;;;;;;;;;15.80;51.60;;;;;;6276700;22;20315;-67
2021/10/31 14:11:56;;;;;;;;;;;15.80;51.50;;;;;;6275005;22;19985;-66
2021/10/31 14:14:39;;;;;;;;;;;15.80;51.60;;;;;;6276493;22;19982;-68
2021/10/31 14:17:10;;;;;;;;;;;15.70;51.40;;;;;;6276656;22;19914;-66
2021/10/31 14:19:36;;;;;;;;;;;15.70;51.40;;;;;;6276921;22;20196;-66
2021/10/31 14:22:02;;;;;;;;;;;15.70;51.40;;;;;;6276611;22;19974;-67
2021/10/31 14:24:28;;;;;;;;;;;15.70;51.50;;;;;;6276688;22;19906;-67
2021/10/31 14:26:55;;;;;;;;;;;15.80;51.60;;;;;;6276422;22;19966;-66